createdAt,value
2023-03-05T00:00:28.629Z,67.05
2023-03-05T00:03:31.476Z,67.59
2023-03-05T00:06:34.214Z,68.08
2023-03-05T00:09:37.057Z,68.08
2023-03-05T00:12:39.601Z,68.10
2023-03-05T00:15:43.047Z,67.76
2023-03-05T00:18:46.384Z,67.88
2023-03-05T00:21:49.212Z,68.04
2023-03-05T00:24:52.403Z,67.80
2023-03-05T00:27:54.895Z,67.71
2023-03-05T00:31:00.991Z,67.58
2023-03-05T00:34:13.285Z,67.66
2023-03-05T00:37:16.728Z,67.35
2023-03-05T00:40:19.476Z,67.14
2023-03-05T00:43:22.072Z,67.48
2023-03-05T00:46:27.331Z,67.37
2023-03-05T00:49:30.514Z,67.12
2023-03-05T00:52:33.926Z,67.39
2023-03-05T00:55:36.554Z,67.00
2023-03-05T00:58:39.743Z,67.31
2023-03-05T01:01:42.118Z,67.46
2023-03-05T01:04:47.068Z,67.55
2023-03-05T01:07:55.051Z,67.40
2023-03-05T01:10:57.925Z,67.86
2023-03-05T01:14:00.317Z,67.90
2023-03-05T01:17:04.459Z,67.74
2023-03-05T01:20:07.865Z,67.67
2023-03-05T01:23:10.525Z,67.15
2023-03-05T01:26:13.660Z,67.01
2023-03-05T01:29:16.456Z,66.90
2023-03-05T01:32:18.828Z,66.87
2023-03-05T01:35:24.449Z,67.19
2023-03-05T01:38:27.248Z,67.24
2023-03-05T01:41:30.127Z,67.21
2023-03-05T01:44:35.276Z,67.84
2023-03-05T01:47:39.526Z,67.43
2023-03-05T01:50:42.135Z,67.61
2023-03-05T01:53:45.227Z,68.00
2023-03-05T01:56:50.179Z,68.47
2023-03-05T01:59:57.840Z,68.88
2023-03-05T02:03:05.540Z,68.94
2023-03-05T02:06:08.203Z,68.84
2023-03-05T02:09:10.770Z,68.86
2023-03-05T02:12:14.916Z,68.54
2023-03-05T02:15:19.233Z,68.28
2023-03-05T02:18:22.095Z,68.06
2023-03-05T02:21:35.631Z,67.61
2023-03-05T02:24:38.308Z,68.04
2023-03-05T02:27:44.673Z,67.61
2023-03-05T02:30:47.342Z,67.65
2023-03-05T02:33:51.150Z,67.32
2023-03-05T02:36:55.586Z,67.32
2023-03-05T02:39:58.704Z,66.69
2023-03-05T02:43:02.192Z,66.84
2023-03-05T02:46:06.223Z,66.63
2023-03-05T02:49:08.574Z,66.09
2023-03-05T02:52:11.582Z,66.34
2023-03-05T02:55:13.917Z,65.82
2023-03-05T02:58:17.080Z,66.34
2023-03-05T03:01:19.690Z,66.42
2023-03-05T03:04:22.531Z,66.40
2023-03-05T03:07:24.794Z,66.15
2023-03-05T03:10:27.696Z,66.22
2023-03-05T03:13:29.952Z,66.75
2023-03-05T03:16:33.752Z,66.98
2023-03-05T03:19:36.884Z,66.47
2023-03-05T03:22:40.700Z,66.35
2023-03-05T03:25:43.071Z,66.08
2023-03-05T03:28:45.905Z,66.24
2023-03-05T03:31:48.656Z,66.58
2023-03-05T03:34:51.538Z,66.79
2023-03-05T03:37:54.081Z,67.28
2023-03-05T03:40:56.633Z,67.44
2023-03-05T03:43:59.181Z,67.21
2023-03-05T03:47:02.136Z,67.00
2023-03-05T03:50:05.261Z,67.28
2023-03-05T03:53:09.466Z,67.17
2023-03-05T03:56:12.530Z,67.46
2023-03-05T03:59:15.554Z,66.95
2023-03-05T04:02:18.028Z,67.83
2023-03-05T04:05:20.676Z,67.50
2023-03-05T04:08:23.026Z,67.55
2023-03-05T04:11:26.443Z,68.28
2023-03-05T04:14:28.719Z,68.72
2023-03-05T04:17:32.699Z,69.01
2023-03-05T04:20:34.983Z,68.74
2023-03-05T04:23:38.349Z,67.86
2023-03-05T04:26:40.947Z,68.22
2023-03-05T04:29:43.576Z,67.93
2023-03-05T04:32:46.155Z,68.43
2023-03-05T04:35:48.819Z,69.20
2023-03-05T04:38:51.544Z,68.62
2023-03-05T04:41:54.081Z,69.22
2023-03-05T04:44:56.682Z,69.12
2023-03-05T04:47:59.430Z,68.41
2023-03-05T04:51:01.793Z,67.80
2023-03-05T04:54:04.815Z,68.54
2023-03-05T04:57:07.758Z,68.70
2023-03-05T05:00:16.764Z,67.96
2023-03-05T05:03:19.359Z,67.66
2023-03-05T05:06:22.163Z,67.23
2023-03-05T05:09:25.373Z,67.55
2023-03-05T05:12:31.183Z,67.28
2023-03-05T05:15:33.989Z,66.58
2023-03-05T05:18:36.616Z,66.36
2023-03-05T05:21:39.286Z,67.17
2023-03-05T05:24:42.097Z,67.37
2023-03-05T05:27:44.417Z,66.52
2023-03-05T05:30:47.066Z,66.53
2023-03-05T05:33:49.983Z,66.10
2023-03-05T05:36:53.377Z,65.72
2023-03-05T05:39:55.702Z,66.11
2023-03-05T05:42:58.354Z,66.80
2023-03-05T05:46:06.082Z,67.01
2023-03-05T05:49:08.924Z,66.66
2023-03-05T05:52:11.447Z,66.09
2023-03-05T05:55:14.348Z,66.05
2023-03-05T05:58:16.847Z,67.33
2023-03-05T06:01:30.816Z,67.01
2023-03-05T06:04:35.044Z,67.22
2023-03-05T06:07:37.507Z,66.86
2023-03-05T06:10:39.973Z,66.76
2023-03-05T06:13:42.500Z,66.93
2023-03-05T06:16:45.375Z,66.44
2023-03-05T06:19:47.875Z,65.85
2023-03-05T06:22:50.380Z,65.84
2023-03-05T06:25:53.406Z,66.47
2023-03-05T06:28:57.433Z,65.48
2023-03-05T06:32:00.053Z,65.50
2023-03-05T06:35:03.083Z,65.27
2023-03-05T06:38:06.987Z,64.66
2023-03-05T06:41:15.586Z,65.25
2023-03-05T06:44:18.153Z,64.76
2023-03-05T06:47:21.049Z,64.87
2023-03-05T06:50:23.600Z,64.05
2023-03-05T06:53:26.599Z,64.95
2023-03-05T06:56:29.113Z,64.45
2023-03-05T06:59:31.590Z,64.18
2023-03-05T07:02:34.192Z,65.00
2023-03-05T07:05:40.935Z,65.26
2023-03-05T07:08:44.835Z,63.64
2023-03-05T07:11:47.638Z,63.17
2023-03-05T07:14:50.641Z,63.58
2023-03-05T07:17:53.095Z,62.68
2023-03-05T07:20:55.466Z,62.34
2023-03-05T07:23:59.868Z,62.59
2023-03-05T07:27:02.260Z,63.58
2023-03-05T07:30:06.410Z,63.31
2023-03-05T07:33:08.737Z,62.75
2023-03-05T07:36:13.372Z,61.78
2023-03-05T07:39:15.598Z,62.59
2023-03-05T07:42:18.533Z,62.00
2023-03-05T07:45:22.195Z,61.56
2023-03-05T07:48:25.193Z,62.02
2023-03-05T07:51:27.812Z,61.51
2023-03-05T07:54:31.135Z,61.19
2023-03-05T07:57:35.471Z,61.43
2023-03-05T08:00:38.512Z,61.42
2023-03-05T08:03:41.922Z,60.70
2023-03-05T08:06:44.337Z,60.77
2023-03-05T08:09:46.938Z,60.23
2023-03-05T08:12:49.227Z,59.47
2023-03-05T08:15:52.179Z,59.45
2023-03-05T08:18:57.334Z,59.16
2023-03-05T08:22:00.143Z,59.51
2023-03-05T08:25:05.097Z,59.14
2023-03-05T08:28:07.636Z,59.37
2023-03-05T08:31:14.363Z,59.03
2023-03-05T08:34:17.304Z,58.30
2023-03-05T08:37:19.649Z,57.14
2023-03-05T08:40:22.535Z,57.56
2023-03-05T08:43:24.820Z,57.49
2023-03-05T08:46:27.365Z,55.93
2023-03-05T08:49:29.690Z,57.52
2023-03-05T08:52:32.567Z,57.40
2023-03-05T08:55:34.883Z,56.42
2023-03-05T08:58:38.006Z,58.13
2023-03-05T09:01:40.375Z,60.14
2023-03-05T09:04:42.904Z,59.06
2023-03-05T09:07:45.784Z,59.11
2023-03-05T09:10:48.318Z,58.39
2023-03-05T09:13:50.999Z,58.34
2023-03-05T09:16:58.165Z,57.53
2023-03-05T09:20:01.445Z,57.63
2023-03-05T09:23:04.886Z,57.21
2023-03-05T09:26:12.147Z,56.34
2023-03-05T09:29:14.791Z,56.68
2023-03-05T09:32:17.294Z,57.10
2023-03-05T09:35:19.970Z,56.99
2023-03-05T09:38:22.537Z,57.95
2023-03-05T09:41:34.474Z,58.59
2023-03-05T09:44:56.625Z,59.14
2023-03-05T09:48:24.689Z,58.60
2023-03-05T09:51:35.025Z,56.98
2023-03-05T09:54:42.194Z,55.91
2023-03-05T09:57:51.626Z,55.21
2023-03-05T10:01:24.153Z,55.16
2023-03-05T10:04:48.889Z,56.54
2023-03-05T10:08:05.007Z,55.21
2023-03-05T10:11:22.439Z,55.03
2023-03-05T10:14:32.134Z,55.17
2023-03-05T10:18:12.758Z,55.24
2023-03-05T10:21:47.039Z,54.32
2023-03-05T10:24:55.287Z,54.51
2023-03-05T10:28:07.774Z,53.05
2023-03-05T10:31:41.647Z,53.71
2023-03-05T10:34:50.345Z,53.79
2023-03-05T10:38:11.785Z,54.93
2023-03-05T10:41:45.139Z,53.47
2023-03-05T10:44:52.700Z,53.31
2023-03-05T10:48:20.042Z,53.76
2023-03-05T10:51:53.938Z,52.62
2023-03-05T10:54:56.183Z,51.53
2023-03-05T10:57:58.990Z,50.46
2023-03-05T11:01:10.261Z,50.31
2023-03-05T11:04:32.005Z,50.76
2023-03-05T11:07:38.138Z,51.37
2023-03-05T11:10:41.023Z,51.79
2023-03-05T11:14:02.265Z,51.78
2023-03-05T11:17:27.509Z,51.83
2023-03-05T11:20:35.394Z,51.98
2023-03-05T11:23:38.623Z,51.40
2023-03-05T11:26:52.249Z,51.33
2023-03-05T11:29:55.066Z,51.64
2023-03-05T11:33:24.531Z,52.36
2023-03-05T11:36:36.117Z,52.13
2023-03-05T11:39:40.225Z,50.27
2023-03-05T11:42:44.086Z,51.40
2023-03-05T11:45:49.066Z,51.67
2023-03-05T11:48:54.469Z,52.08
2023-03-05T11:52:18.276Z,50.51
2023-03-05T11:55:47.256Z,49.82
2023-03-05T11:59:13.771Z,49.78
2023-03-05T12:02:23.255Z,49.70
2023-03-05T12:05:28.850Z,50.99
2023-03-05T12:08:35.543Z,51.47
2023-03-05T12:11:38.649Z,50.90
2023-03-05T12:14:51.236Z,50.29
2023-03-05T12:17:59.637Z,50.22
2023-03-05T12:21:07.168Z,49.19
2023-03-05T12:24:28.002Z,49.24
2023-03-05T12:27:36.856Z,48.89
2023-03-05T12:30:42.817Z,48.90
2023-03-05T12:33:45.453Z,48.04
2023-03-05T12:36:48.801Z,48.65
2023-03-05T12:40:20.553Z,49.01
2023-03-05T12:43:32.796Z,47.04
2023-03-05T12:46:37.962Z,47.72
2023-03-05T12:49:44.207Z,47.47
2023-03-05T12:52:46.594Z,46.39
2023-03-05T12:56:01.529Z,46.08
2023-03-05T12:59:04.290Z,46.16
2023-03-05T13:02:20.637Z,44.94
2023-03-05T13:05:39.386Z,44.96
2023-03-05T13:08:42.592Z,45.50
2023-03-05T13:11:49.007Z,44.94
2023-03-05T13:15:06.470Z,44.73
2023-03-05T13:18:19.207Z,45.68
2023-03-05T13:21:30.778Z,46.35
2023-03-05T13:24:33.991Z,46.21
2023-03-05T13:27:39.486Z,47.11
2023-03-05T13:30:53.205Z,47.54
2023-03-05T13:34:08.841Z,48.24
2023-03-05T13:37:22.490Z,48.15
2023-03-05T13:40:29.358Z,47.81
2023-03-05T13:43:31.896Z,48.18
2023-03-05T13:46:34.329Z,48.04
2023-03-05T13:49:36.619Z,48.41
2023-03-05T13:52:39.272Z,47.94
2023-03-05T13:55:41.560Z,48.03
2023-03-05T13:58:48.303Z,48.52
2023-03-05T14:01:52.932Z,49.30
2023-03-05T14:04:56.004Z,48.62
2023-03-05T14:07:58.657Z,48.90
2023-03-05T14:11:13.406Z,49.17
2023-03-05T14:14:19.041Z,50.60
2023-03-05T14:17:27.801Z,51.08
2023-03-05T14:20:31.697Z,50.63
2023-03-05T14:23:41.005Z,50.66
2023-03-05T14:26:56.527Z,50.86
2023-03-05T14:29:59.433Z,51.77
2023-03-05T14:33:02.848Z,51.61
2023-03-05T14:36:06.229Z,52.20
2023-03-05T14:39:32.020Z,52.98
2023-03-05T14:42:41.261Z,53.24
2023-03-05T14:45:44.172Z,52.99
2023-03-05T14:48:47.013Z,53.41
2023-03-05T14:51:49.234Z,52.54
2023-03-05T14:54:52.486Z,52.38
2023-03-05T14:58:01.242Z,52.82
2023-03-05T15:01:03.888Z,53.01
2023-03-05T15:04:06.421Z,52.32
2023-03-05T15:07:16.684Z,52.05
2023-03-05T15:10:21.643Z,53.73
2023-03-05T15:13:24.535Z,52.71
2023-03-05T15:16:27.119Z,52.84
2023-03-05T15:19:29.682Z,52.73
2023-03-05T15:22:31.979Z,52.16
2023-03-05T15:25:35.346Z,53.42
2023-03-05T15:28:39.347Z,53.06
2023-03-05T15:31:41.924Z,53.18
2023-03-05T15:34:44.056Z,53.29
2023-03-05T15:37:46.611Z,53.39
2023-03-05T15:40:50.149Z,53.41
2023-03-05T15:43:52.688Z,53.68
2023-03-05T15:46:56.671Z,53.63
2023-03-05T15:49:59.629Z,54.55
2023-03-05T15:53:02.185Z,54.44
2023-03-05T15:56:05.037Z,54.80
2023-03-05T15:59:09.377Z,54.63
2023-03-05T16:02:12.603Z,55.11
2023-03-05T16:05:15.200Z,55.66
2023-03-05T16:08:17.381Z,54.87
2023-03-05T16:11:20.632Z,54.69
2023-03-05T16:14:26.048Z,55.58
2023-03-05T16:17:28.673Z,56.18
2023-03-05T16:20:30.986Z,55.21
2023-03-05T16:23:33.688Z,56.31
2023-03-05T16:26:37.189Z,56.18
2023-03-05T16:29:40.363Z,56.10
2023-03-05T16:32:42.951Z,56.76
2023-03-05T16:35:45.917Z,57.92
2023-03-05T16:38:53.066Z,57.73
2023-03-05T16:41:55.659Z,57.82
2023-03-05T16:45:01.695Z,56.88
2023-03-05T16:48:04.825Z,55.77
2023-03-05T16:51:07.335Z,55.59
2023-03-05T16:54:10.293Z,55.61
2023-03-05T16:57:12.706Z,54.82
2023-03-05T17:00:17.144Z,55.33
2023-03-05T17:03:20.432Z,54.71
2023-03-05T17:06:25.798Z,55.18
2023-03-05T17:09:28.416Z,55.04
2023-03-05T17:12:31.018Z,55.12
2023-03-05T17:15:34.032Z,54.99
2023-03-05T17:18:36.936Z,54.87
2023-03-05T17:21:41.988Z,55.18
2023-03-05T17:24:47.176Z,54.93
2023-03-05T17:27:49.449Z,55.46
2023-03-05T17:30:52.078Z,56.24
2023-03-05T17:33:55.842Z,57.00
2023-03-05T17:36:58.553Z,57.35
2023-03-05T17:40:01.088Z,57.24
2023-03-05T17:43:04.548Z,56.87
2023-03-05T17:46:07.517Z,57.05
2023-03-05T17:49:10.187Z,57.44
2023-03-05T17:52:12.669Z,57.56
2023-03-05T17:55:17.268Z,58.14
2023-03-05T17:58:19.633Z,57.81
2023-03-05T18:01:31.370Z,58.09
2023-03-05T18:04:34.548Z,57.75
2023-03-05T18:07:38.089Z,58.07
2023-03-05T18:10:41.137Z,58.06
2023-03-05T18:13:43.370Z,58.17
2023-03-05T18:16:46.588Z,57.38
2023-03-05T18:19:49.867Z,57.17
2023-03-05T18:22:52.959Z,57.13
2023-03-05T18:25:55.258Z,57.10
2023-03-05T18:28:58.126Z,56.98
2023-03-05T18:32:00.601Z,56.89
2023-03-05T18:35:03.690Z,56.84
2023-03-05T18:38:05.836Z,56.54
2023-03-05T18:41:08.615Z,56.67
2023-03-05T18:44:11.376Z,55.74
2023-03-05T18:47:13.897Z,56.87
2023-03-05T18:50:18.577Z,56.86
2023-03-05T18:53:22.308Z,56.99
2023-03-05T18:56:25.481Z,56.74
2023-03-05T18:59:29.610Z,57.29
2023-03-05T19:02:34.344Z,56.83
2023-03-05T19:05:38.218Z,57.24
2023-03-05T19:08:40.489Z,57.12
2023-03-05T19:11:43.070Z,56.48
2023-03-05T19:14:46.125Z,56.61
2023-03-05T19:17:49.485Z,56.91
2023-03-05T19:20:58.499Z,56.87
2023-03-05T19:24:01.073Z,57.35
2023-03-05T19:27:10.241Z,57.00
2023-03-05T19:30:13.847Z,57.03
2023-03-05T19:33:16.924Z,55.82
2023-03-05T19:36:19.417Z,55.70
2023-03-05T19:39:21.604Z,55.79
2023-03-05T19:42:24.086Z,56.27
2023-03-05T19:45:26.588Z,56.58
2023-03-05T19:48:30.439Z,56.34
2023-03-05T19:51:32.828Z,56.23
2023-03-05T19:54:35.732Z,57.23
2023-03-05T19:57:38.021Z,57.01
2023-03-05T20:00:40.918Z,57.29
2023-03-05T20:03:48.439Z,58.18
2023-03-05T20:06:51.352Z,58.29
2023-03-05T20:09:55.529Z,58.51
2023-03-05T20:12:57.953Z,58.76
2023-03-05T20:16:01.113Z,59.29
2023-03-05T20:19:05.905Z,59.68
2023-03-05T20:22:09.202Z,59.30
2023-03-05T20:25:13.833Z,58.71
2023-03-05T20:28:16.439Z,58.60
2023-03-05T20:31:21.233Z,59.16
2023-03-05T20:34:23.920Z,59.32
2023-03-05T20:38:22.638Z,59.27
2023-03-05T20:41:25.219Z,59.66
2023-03-05T20:44:27.559Z,59.35
2023-03-05T20:47:44.966Z,59.41
2023-03-05T20:50:47.582Z,59.98
2023-03-05T20:53:58.004Z,60.25
2023-03-05T20:57:00.282Z,60.16
2023-03-05T21:00:04.043Z,60.39
2023-03-05T21:03:07.217Z,60.18
2023-03-05T21:06:09.858Z,60.82
2023-03-05T21:09:12.363Z,61.32
2023-03-05T21:12:14.862Z,62.08
2023-03-05T21:15:20.341Z,62.49
2023-03-05T21:18:23.681Z,62.95
2023-03-05T21:21:26.122Z,63.45
2023-03-05T21:25:23.049Z,64.11
2023-03-05T21:28:25.753Z,63.63
2023-03-05T21:31:28.648Z,63.40
2023-03-05T21:34:31.359Z,63.16
2023-03-05T21:37:34.817Z,63.65
2023-03-05T21:40:39.961Z,64.40
2023-03-05T21:43:43.435Z,64.13
2023-03-05T21:46:45.687Z,64.07
2023-03-05T21:49:48.532Z,63.79
2023-03-05T21:52:51.876Z,63.65
2023-03-05T21:56:25.797Z,63.30
2023-03-05T21:59:28.471Z,63.75
2023-03-05T22:02:32.115Z,63.59
2023-03-05T22:05:34.944Z,64.45
2023-03-05T22:08:37.252Z,64.89
2023-03-05T22:11:44.102Z,64.73
2023-03-05T22:14:46.402Z,64.20
2023-03-05T22:17:49.581Z,63.37
2023-03-05T22:20:53.264Z,63.09
2023-03-05T22:23:59.484Z,64.30
2023-03-05T22:27:01.956Z,64.17
2023-03-05T22:30:06.918Z,64.07
2023-03-05T22:33:09.684Z,64.47
2023-03-05T22:36:13.955Z,64.72
2023-03-05T22:39:16.329Z,65.65
2023-03-05T22:42:18.990Z,65.57
2023-03-05T22:45:22.139Z,64.75
2023-03-05T22:48:25.004Z,64.57
2023-03-05T22:51:27.432Z,65.16
2023-03-05T22:54:30.475Z,64.48
2023-03-05T22:57:33.445Z,65.28
2023-03-05T23:00:37.551Z,65.47
2023-03-05T23:03:41.413Z,65.57
2023-03-05T23:07:02.472Z,65.55
2023-03-05T23:10:15.131Z,65.81
2023-03-05T23:13:17.537Z,65.50
2023-03-05T23:16:20.127Z,65.07
2023-03-05T23:19:22.259Z,65.80
2023-03-05T23:22:25.150Z,65.74
2023-03-05T23:25:30.344Z,65.80
2023-03-05T23:28:33.136Z,66.38
2023-03-05T23:31:35.414Z,66.88
2023-03-05T23:34:37.903Z,66.90
2023-03-05T23:37:41.426Z,66.89
2023-03-05T23:40:49.678Z,66.48
2023-03-05T23:43:52.184Z,66.81
2023-03-05T23:46:54.760Z,66.52
2023-03-05T23:49:57.053Z,66.55
2023-03-05T23:53:02.228Z,66.47
2023-03-05T23:56:11.525Z,67.12
2023-03-05T23:59:14.179Z,66.80
